Time;durP1;ratioP1;P1;durP2;ratioP2;P2;SDS_P1;SDS_P2;PMS_P1;PMS_P2;Temp;Humidity;BMP_temperature;BMP_pressure;BME280_temperature;BME280_humidity;BME280_pressure;Samples;Min_cycle;Max_cycle;Signal;HPM_P1;HPM_P2
2021/08/02 00:00:15;;;;;;;4.43;3.10;;;19.40;99.90;;;;;;5040180;28;20683;-80
2021/08/02 00:02:44;;;;;;;4.53;4.13;;;19.40;99.90;;;;;;5050042;28;20593;-80
2021/08/02 00:05:10;;;;;;;4.90;3.73;;;19.40;99.90;;;;;;5048227;28;20649;-80
2021/08/02 00:07:40;;;;;;;5.13;4.73;;;19.40;99.90;;;;;;5044768;28;20690;-80
2021/08/02 00:10:12;;;;;;;4.80;4.40;;;19.40;99.90;;;;;;5044281;28;20576;-80
2021/08/02 00:12:47;;;;;;;5.63;4.60;;;19.40;99.90;;;;;;5056066;28;21193;-80
2021/08/02 00:15:16;;;;;;;4.80;4.40;;;19.40;99.90;;;;;;5045489;28;20582;-80
2021/08/02 00:17:44;;;;;;;5.73;4.40;;;19.40;99.90;;;;;;5052035;28;20607;-80
2021/08/02 00:20:17;;;;;;;4.93;4.57;;;19.40;99.90;;;;;;5052458;28;20567;-80
2021/08/02 00:22:43;;;;;;;5.20;4.77;;;19.40;99.90;;;;;;5052402;28;20664;-80
2021/08/02 00:25:11;;;;;;;5.50;5.00;;;19.40;99.90;;;;;;5053699;28;20625;-80
2021/08/02 00:27:37;;;;;;;5.37;4.70;;;19.40;99.90;;;;;;5035641;28;20696;-80
2021/08/02 00:30:05;;;;;;;5.50;5.00;;;19.40;99.90;;;;;;5053326;28;20578;-80
2021/08/02 00:32:32;;;;;;;6.03;5.50;;;19.40;99.90;;;;;;5027441;28;21063;-80
2021/08/02 00:34:58;;;;;;;6.27;5.67;;;19.40;99.90;;;;;;5027313;28;20930;-80
2021/08/02 00:37:38;;;;;;;4.77;4.37;;;19.40;99.90;;;;;;5053019;28;20584;-80
2021/08/02 00:40:38;;;;;;;5.83;5.33;;;19.40;99.90;;;;;;5035573;28;20180;-80
2021/08/02 00:43:16;;;;;;;7.20;5.43;;;19.30;99.90;;;;;;5052011;28;20595;-80
2021/08/02 00:45:45;;;;;;;5.87;5.10;;;19.30;99.90;;;;;;5042540;28;20584;-80
2021/08/02 00:48:22;;;;;;;5.00;4.60;;;19.30;99.90;;;;;;5051514;28;20599;-80
2021/08/02 00:50:50;;;;;;;6.27;5.70;;;19.30;99.90;;;;;;5053218;28;20725;-80
2021/08/02 00:53:18;;;;;;;5.53;4.97;;;19.20;99.90;;;;;;5052788;28;20714;-80
2021/08/02 00:55:55;;;;;;;4.90;4.50;;;19.20;99.90;;;;;;5051557;28;20576;-80
2021/08/02 00:58:25;;;;;;;4.87;4.50;;;19.20;99.90;;;;;;5051064;28;20614;-80
2021/08/02 01:00:52;;;;;;;5.53;5.03;;;19.10;99.90;;;;;;5051863;28;20661;-80
2021/08/02 01:03:19;;;;;;;4.77;4.37;;;19.10;99.90;;;;;;5052769;28;20572;-80
2021/08/02 01:05:51;;;;;;;6.40;5.90;;;19.10;99.90;;;;;;5052869;28;20574;-79
2021/08/02 01:08:31;;;;;;;5.10;4.70;;;19.10;99.90;;;;;;5051159;28;21026;-79
2021/08/02 01:11:04;;;;;;;4.93;4.47;;;19.00;99.90;;;;;;5051648;28;20574;-80
2021/08/02 01:13:33;;;;;;;5.57;5.00;;;19.00;99.90;;;;;;5051453;28;21074;-80
2021/08/02 01:16:02;;;;;;;6.10;5.50;;;19.00;99.90;;;;;;5051743;28;20641;-80
2021/08/02 01:18:32;;;;;;;6.03;5.37;;;19.00;99.90;;;;;;5052279;28;20617;-80
2021/08/02 01:21:02;;;;;;;5.57;5.00;;;19.00;99.90;;;;;;5054036;28;21111;-80
2021/08/02 01:23:30;;;;;;;6.87;5.20;;;18.90;99.90;;;;;;5052529;28;20582;-80
2021/08/02 01:25:57;;;;;;;7.33;4.90;;;19.00;99.90;;;;;;5052414;28;20610;-80
2021/08/02 01:28:24;;;;;;;6.07;4.80;;;18.90;99.90;;;;;;5034395;28;20658;-80
2021/08/02 01:30:56;;;;;;;6.43;5.50;;;19.00;99.90;;;;;;5052444;28;20567;-79
2021/08/02 01:33:31;;;;;;;6.17;5.67;;;18.90;99.90;;;;;;5051140;28;20619;-80
2021/08/02 01:36:07;;;;;;;5.70;5.10;;;19.00;99.90;;;;;;5052318;28;20927;-80
2021/08/02 01:38:36;;;;;;;5.97;5.40;;;19.00;99.90;;;;;;5051816;28;20592;-80
2021/08/02 01:41:08;;;;;;;8.30;4.97;;;19.00;99.90;;;;;;5050864;28;20572;-80
2021/08/02 01:43:38;;;;;;;5.77;5.27;;;19.00;99.90;;;;;;5052076;28;20575;-80
2021/08/02 01:46:38;;;;;;;6.53;5.90;;;19.00;99.90;;;;;;5050931;28;20678;-80
2021/08/02 01:49:27;;;;;;;6.13;5.60;;;18.90;99.90;;;;;;5033933;28;20982;-80
2021/08/02 01:51:56;;;;;;;5.90;5.40;;;19.00;99.90;;;;;;5050913;28;20701;-80
2021/08/02 01:54:36;;;;;;;5.90;5.43;;;19.00;99.90;;;;;;5034952;28;20591;-80
2021/08/02 01:57:10;;;;;;;8.20;5.40;;;19.00;99.90;;;;;;5051444;28;20666;-80
2021/08/02 02:00:05;;;;;;;6.17;5.57;;;18.90;99.90;;;;;;5051632;28;20571;-80
2021/08/02 02:02:58;;;;;;;7.10;5.50;;;18.90;99.90;;;;;;5050945;28;20586;-80
2021/08/02 02:05:33;;;;;;;5.90;5.30;;;18.90;99.90;;;;;;5050709;28;20583;-80
2021/08/02 02:08:19;;;;;;;6.30;5.80;;;18.90;99.90;;;;;;5050269;28;20700;-80
2021/08/02 02:10:59;;;;;;;7.20;6.30;;;18.90;99.90;;;;;;5050594;28;20594;-80
2021/08/02 02:13:43;;;;;;;6.70;6.00;;;18.80;99.90;;;;;;5050219;28;20651;-81
2021/08/02 02:16:13;;;;;;;7.30;6.00;;;18.80;99.90;;;;;;5050280;28;20628;-80
2021/08/02 02:18:49;;;;;;;7.40;5.97;;;18.80;99.90;;;;;;5050041;28;20576;-80
2021/08/02 02:21:18;;;;;;;7.03;6.33;;;18.80;99.90;;;;;;5051790;28;20930;-80
2021/08/02 02:23:46;;;;;;;7.87;7.13;;;18.80;99.90;;;;;;5050429;28;20588;-80
2021/08/02 02:26:15;;;;;;;11.27;6.67;;;18.80;99.90;;;;;;5050057;28;20910;-80
2021/08/02 02:28:44;;;;;;;7.27;6.67;;;18.80;99.90;;;;;;5049903;28;20582;-80
2021/08/02 02:31:13;;;;;;;6.80;6.20;;;18.80;99.90;;;;;;5050531;28;20633;-80
2021/08/02 02:33:42;;;;;;;7.00;6.40;;;18.80;99.90;;;;;;5055840;28;20623;-80
2021/08/02 02:36:09;;;;;;;8.73;6.67;;;18.80;99.90;;;;;;5056198;28;20617;-80
2021/08/02 02:38:35;;;;;;;7.60;6.80;;;18.80;99.90;;;;;;5054111;28;20698;-80
2021/08/02 02:41:02;;;;;;;6.73;6.10;;;18.80;99.90;;;;;;5054188;28;20602;-80
2021/08/02 02:43:32;;;;;;;6.70;6.13;;;18.80;99.90;;;;;;5055518;28;20572;-80
2021/08/02 02:46:03;;;;;;;7.10;6.50;;;18.80;99.90;;;;;;5054145;28;20586;-80
2021/08/02 02:48:31;;;;;;;6.30;5.70;;;18.80;99.90;;;;;;5037621;28;20646;-80
2021/08/02 02:50:58;;;;;;;7.10;6.40;;;18.80;99.90;;;;;;5055439;28;20615;-80
2021/08/02 02:53:25;;;;;;;6.53;5.93;;;18.90;99.90;;;;;;5055243;28;20643;-80
2021/08/02 02:55:54;;;;;;;7.33;6.33;;;18.80;99.90;;;;;;5053857;28;20674;-80
2021/08/02 02:58:21;;;;;;;5.80;5.30;;;18.80;99.90;;;;;;5053426;28;20638;-80
2021/08/02 03:00:48;;;;;;;8.73;7.20;;;18.80;99.90;;;;;;5054986;28;20923;-80
2021/08/02 03:03:21;;;;;;;7.60;6.80;;;18.80;99.90;;;;;;5053823;28;20611;-80
2021/08/02 03:05:50;;;;;;;6.40;5.90;;;18.80;99.90;;;;;;5053779;28;20598;-80
2021/08/02 03:08:20;;;;;;;6.00;5.50;;;18.80;99.90;;;;;;5053401;28;21044;-80
2021/08/02 03:10:50;;;;;;;6.50;5.87;;;18.80;99.90;;;;;;5056759;28;20602;-80
2021/08/02 03:13:16;;;;;;;7.33;5.90;;;18.80;99.90;;;;;;5053716;28;20670;-81
2021/08/02 03:15:43;;;;;;;5.13;4.63;;;18.90;99.90;;;;;;5053471;28;20619;-80
2021/08/02 03:18:10;;;;;;;5.73;5.23;;;18.90;99.90;;;;;;5054215;28;20193;-80
2021/08/02 03:20:36;;;;;;;6.07;4.47;;;18.90;99.90;;;;;;5054571;28;20602;-80
2021/08/02 03:23:08;;;;;;;5.17;4.67;;;18.90;99.90;;;;;;5053444;28;20626;-80
2021/08/02 03:25:40;;;;;;;5.77;5.17;;;18.90;99.90;;;;;;5053293;28;20966;-80
2021/08/02 03:28:19;;;;;;;5.13;4.60;;;18.90;99.90;;;;;;5053020;28;20705;-80
2021/08/02 03:30:48;;;;;;;5.50;5.00;;;18.90;99.90;;;;;;5054426;28;20575;-80
2021/08/02 03:33:17;;;;;;;6.13;4.60;;;18.90;99.90;;;;;;5054601;28;20615;-80
2021/08/02 03:35:47;;;;;;;4.47;4.07;;;18.90;99.90;;;;;;5054201;28;20563;-80
2021/08/02 03:38:15;;;;;;;5.70;5.20;;;18.90;99.90;;;;;;5036270;28;21209;-80
2021/08/02 03:40:43;;;;;;;5.03;4.53;;;18.90;99.90;;;;;;5054186;28;20563;-80
2021/08/02 03:43:09;;;;;;;5.40;4.90;;;18.90;99.90;;;;;;5053238;28;20926;-80
2021/08/02 03:45:35;;;;;;;5.00;4.50;;;18.90;99.90;;;;;;5054039;28;20573;-80
2021/08/02 03:48:02;;;;;;;7.87;5.43;;;18.90;99.90;;;;;;5055037;28;20635;-80
2021/08/02 03:50:30;;;;;;;5.10;4.60;;;18.90;99.90;;;;;;5052821;28;21244;-80
2021/08/02 03:52:57;;;;;;;6.73;4.60;;;18.80;99.90;;;;;;5053969;28;20630;-80
2021/08/02 03:55:25;;;;;;;6.10;4.67;;;18.80;99.90;;;;;;5052718;28;20713;-80
2021/08/02 03:57:51;;;;;;;6.47;4.70;;;18.80;99.90;;;;;;5053579;28;20984;-80
2021/08/02 04:00:21;;;;;;;7.83;4.40;;;18.80;99.90;;;;;;5054108;28;20651;-80
2021/08/02 04:02:51;;;;;;;6.13;4.17;;;18.80;99.90;;;;;;5052592;28;20169;-80
2021/08/02 04:05:19;;;;;;;7.10;4.60;;;18.80;99.90;;;;;;5053934;28;20581;-80
2021/08/02 04:07:46;;;;;;;6.00;5.40;;;18.80;99.90;;;;;;5053409;28;20645;-80
2021/08/02 04:10:13;;;;;;;5.90;5.10;;;18.80;99.90;;;;;;5052655;28;20679;-80
2021/08/02 04:12:39;;;;;;;5.77;4.70;;;18.80;99.90;;;;;;5053547;28;20618;-80
2021/08/02 04:15:08;;;;;;;5.00;4.50;;;18.80;99.90;;;;;;5052622;28;20988;-80
2021/08/02 04:17:34;;;;;;;6.10;4.47;;;18.80;99.90;;;;;;5053366;28;20606;-80
2021/08/02 04:20:00;;;;;;;5.83;4.40;;;18.80;99.90;;;;;;5052163;28;20648;-80
2021/08/02 04:22:25;;;;;;;5.30;3.90;;;18.80;99.90;;;;;;5053390;28;20568;-80
2021/08/02 04:24:51;;;;;;;5.20;4.70;;;18.80;99.90;;;;;;5055783;28;20177;-80
2021/08/02 04:27:17;;;;;;;6.70;4.07;;;18.80;99.90;;;;;;5052060;28;20234;-80
2021/08/02 04:29:42;;;;;;;4.83;4.43;;;18.80;99.90;;;;;;5053187;28;20584;-80
2021/08/02 04:32:09;;;;;;;5.17;4.00;;;18.80;99.90;;;;;;5053146;28;20288;-80
2021/08/02 04:34:35;;;;;;;5.40;4.13;;;18.80;99.90;;;;;;5052083;28;20542;-80
2021/08/02 04:37:01;;;;;;;4.53;3.83;;;18.80;99.90;;;;;;5052948;28;20695;-80
2021/08/02 04:39:26;;;;;;;4.03;3.60;;;18.90;99.90;;;;;;5051830;28;20268;-80
2021/08/02 04:41:52;;;;;;;4.93;4.30;;;18.90;99.90;;;;;;5051841;28;20248;-80
2021/08/02 04:44:18;;;;;;;4.47;4.07;;;18.90;99.90;;;;;;5053184;28;20183;-80
2021/08/02 04:46:44;;;;;;;4.27;3.87;;;19.00;99.90;;;;;;5051557;28;20691;-80
2021/08/02 04:49:09;;;;;;;7.40;4.00;;;19.00;99.90;;;;;;5051674;28;20173;-80
2021/08/02 04:51:35;;;;;;;5.73;4.50;;;19.00;99.90;;;;;;5052875;28;20180;-80
2021/08/02 04:54:01;;;;;;;5.53;4.17;;;19.00;99.90;;;;;;5051373;28;20170;-80
2021/08/02 04:56:27;;;;;;;5.73;4.53;;;19.00;99.90;;;;;;5051304;28;20580;-80
2021/08/02 04:58:52;;;;;;;4.50;4.10;;;19.00;99.90;;;;;;5051485;28;20268;-80
2021/08/02 05:01:19;;;;;;;6.50;4.13;;;19.00;99.90;;;;;;5052967;28;20625;-80
2021/08/02 05:03:45;;;;;;;4.17;3.77;;;19.00;99.90;;;;;;5051474;28;20184;-80
2021/08/02 05:06:11;;;;;;;4.87;4.37;;;19.10;99.90;;;;;;5052593;28;20568;-80
2021/08/02 05:08:37;;;;;;;4.17;3.77;;;19.10;99.90;;;;;;5052110;28;20652;-80
2021/08/02 05:11:03;;;;;;;5.77;3.47;;;19.10;99.90;;;;;;5052732;28;20904;-80
2021/08/02 05:13:29;;;;;;;4.07;3.40;;;19.10;99.90;;;;;;5052410;28;20204;-80
2021/08/02 05:15:55;;;;;;;6.20;3.53;;;19.10;99.90;;;;;;5052540;28;20694;-80
2021/08/02 05:18:21;;;;;;;5.13;3.33;;;19.10;99.90;;;;;;5052034;28;20702;-80
2021/08/02 05:20:46;;;;;;;5.40;4.70;;;19.20;99.90;;;;;;5052555;28;20729;-80
2021/08/02 05:23:12;;;;;;;6.17;4.00;;;19.20;99.90;;;;;;5051043;28;20634;-80
2021/08/02 05:25:38;;;;;;;4.30;3.20;;;19.20;99.90;;;;;;5052298;28;20181;-80
2021/08/02 05:28:04;;;;;;;4.33;3.90;;;19.20;99.90;;;;;;5051916;28;20664;-80
2021/08/02 05:30:30;;;;;;;4.40;3.93;;;19.20;99.90;;;;;;5052467;28;20612;-80
2021/08/02 05:32:55;;;;;;;4.13;3.70;;;19.20;99.90;;;;;;5052311;28;20623;-80
2021/08/02 05:35:21;;;;;;;4.60;3.30;;;19.20;99.90;;;;;;5052379;28;20621;-80
2021/08/02 05:37:47;;;;;;;4.53;3.40;;;19.30;99.90;;;;;;5052594;28;20623;-80
2021/08/02 05:40:13;;;;;;;3.40;2.93;;;19.30;99.90;;;;;;5050891;28;20184;-80
2021/08/02 05:42:39;;;;;;;2.73;2.50;;;19.40;99.90;;;;;;5051986;28;20173;-80
2021/08/02 05:45:07;;;;;;;5.57;3.10;;;19.50;99.90;;;;;;5052216;28;20625;-81
2021/08/02 05:47:33;;;;;;;5.13;3.17;;;19.60;99.90;;;;;;5050520;28;20258;-80
2021/08/02 05:49:59;;;;;;;3.80;2.13;;;19.60;99.90;;;;;;5051762;28;20618;-81
2021/08/02 05:52:24;;;;;;;3.70;3.37;;;19.70;99.90;;;;;;5050801;28;20666;-81
2021/08/02 05:54:50;;;;;;;4.00;3.70;;;19.80;99.90;;;;;;5050660;28;20177;-81
2021/08/02 05:57:21;;;;;;;6.17;4.00;;;19.80;99.90;;;;;;5051656;28;20200;-81
2021/08/02 05:59:47;;;;;;;5.03;3.70;;;19.90;99.90;;;;;;5052964;28;20566;-81
2021/08/02 06:02:12;;;;;;;4.47;3.70;;;20.00;99.90;;;;;;5052471;28;20624;-81
2021/08/02 06:04:38;;;;;;;3.10;2.80;;;20.00;99.90;;;;;;5053805;28;20966;-81
2021/08/02 06:07:04;;;;;;;6.00;3.77;;;20.00;99.90;;;;;;5052373;28;20192;-81
2021/08/02 06:09:30;;;;;;;3.33;3.00;;;20.10;99.90;;;;;;5051952;28;20260;-81
2021/08/02 06:11:55;;;;;;;3.83;3.43;;;20.10;99.90;;;;;;5052951;28;20750;-81
2021/08/02 06:14:21;;;;;;;3.93;3.53;;;20.20;99.90;;;;;;5051933;28;20180;-81
2021/08/02 06:16:47;;;;;;;4.97;4.13;;;20.20;99.90;;;;;;5050984;28;20185;-81
2021/08/02 06:19:12;;;;;;;5.20;3.20;;;20.30;99.90;;;;;;5051602;28;20169;-81
2021/08/02 06:21:38;;;;;;;4.90;3.47;;;20.30;99.90;;;;;;5050439;28;20691;-81
2021/08/02 06:24:04;;;;;;;4.37;3.90;;;20.30;99.90;;;;;;5050486;28;20176;-81
2021/08/02 06:26:31;;;;;;;6.83;3.67;;;20.30;99.90;;;;;;5051629;28;20173;-81
2021/08/02 06:28:57;;;;;;;4.43;3.60;;;20.30;99.90;;;;;;5052352;28;20570;-80
2021/08/02 06:31:23;;;;;;;4.30;3.23;;;20.40;99.90;;;;;;5052250;28;20555;-80
2021/08/02 06:33:49;;;;;;;4.90;3.20;;;20.40;99.90;;;;;;5052113;28;20627;-81
2021/08/02 06:36:17;;;;;;;5.83;3.97;;;20.40;99.90;;;;;;5050148;28;20685;-80
2021/08/02 06:38:43;;;;;;;5.47;4.30;;;20.30;99.90;;;;;;5051411;28;20165;-81
2021/08/02 06:41:08;;;;;;;4.30;2.97;;;20.30;99.90;;;;;;5051284;28;20575;-81
2021/08/02 06:43:34;;;;;;;4.73;3.93;;;20.20;99.90;;;;;;5050096;28;20183;-80
2021/08/02 06:46:00;;;;;;;10.13;4.10;;;20.20;99.90;;;;;;5051341;28;20161;-80
2021/08/02 06:48:27;;;;;;;5.53;3.93;;;20.10;99.90;;;;;;5050835;28;20196;-80
2021/08/02 06:50:53;;;;;;;4.60;3.77;;;20.10;99.90;;;;;;5052323;28;20574;-80
2021/08/02 06:53:18;;;;;;;7.00;3.93;;;20.00;99.90;;;;;;5049912;28;20619;-80
2021/08/02 06:55:47;;;;;;;5.50;3.90;;;20.00;99.90;;;;;;5050920;28;20563;-80
2021/08/02 06:58:13;;;;;;;6.67;5.20;;;19.90;99.90;;;;;;5051349;28;20208;-80
2021/08/02 07:00:40;;;;;;;5.87;5.23;;;19.80;99.90;;;;;;5034143;28;20565;-80
2021/08/02 07:03:05;;;;;;;5.57;4.00;;;19.70;99.90;;;;;;5051711;28;21038;-80
2021/08/02 07:05:32;;;;;;;5.27;4.77;;;19.70;99.90;;;;;;5049978;28;20608;-81
2021/08/02 07:07:57;;;;;;;7.43;3.77;;;19.70;99.90;;;;;;5051202;28;20221;-81
2021/08/02 07:10:23;;;;;;;4.87;4.37;;;19.60;99.90;;;;;;5052622;28;20575;-81
2021/08/02 07:12:49;;;;;;;4.63;4.20;;;19.60;99.90;;;;;;5054950;28;20208;-81
2021/08/02 07:15:15;;;;;;;4.13;3.70;;;19.50;99.90;;;;;;5054350;28;20567;-81
2021/08/02 07:17:40;;;;;;;4.93;4.53;;;19.50;99.90;;;;;;5056516;28;20541;-81
2021/08/02 07:20:07;;;;;;;5.23;4.20;;;19.50;99.90;;;;;;5056870;28;20272;-81
2021/08/02 07:22:33;;;;;;;4.47;4.00;;;19.50;99.90;;;;;;5056136;28;20197;-81
2021/08/02 07:24:58;;;;;;;4.67;3.90;;;19.50;99.90;;;;;;5055431;28;21156;-81
2021/08/02 07:27:24;;;;;;;4.13;3.57;;;19.50;99.90;;;;;;5054330;28;20619;-81
2021/08/02 07:29:50;;;;;;;5.77;5.13;;;19.50;99.90;;;;;;5060277;28;20182;-81
2021/08/02 07:32:16;;;;;;;5.17;3.53;;;19.50;99.90;;;;;;5050388;28;20244;-81
2021/08/02 07:34:41;;;;;;;5.70;4.03;;;19.40;99.90;;;;;;5028037;28;20652;-81
2021/08/02 07:37:07;;;;;;;6.20;5.10;;;19.40;99.90;;;;;;5048040;28;20193;-81
2021/08/02 07:39:33;;;;;;;5.13;4.47;;;19.40;99.90;;;;;;5049450;28;20238;-81
2021/08/02 07:41:59;;;;;;;4.80;3.70;;;19.40;99.90;;;;;;5046448;28;20607;-81
2021/08/02 07:44:25;;;;;;;4.33;3.93;;;19.40;99.90;;;;;;5039018;28;20630;-81
2021/08/02 07:46:51;;;;;;;3.83;3.53;;;19.40;99.90;;;;;;5045886;28;20623;-81
2021/08/02 07:49:16;;;;;;;4.90;4.13;;;19.30;99.90;;;;;;5037918;28;20582;-81
2021/08/02 07:51:42;;;;;;;4.23;3.83;;;19.40;99.90;;;;;;5036934;28;20507;-81
2021/08/02 07:54:09;;;;;;;5.77;3.97;;;19.40;99.90;;;;;;5035947;28;20203;-81
2021/08/02 07:56:35;;;;;;;4.30;3.37;;;19.40;99.90;;;;;;5033541;28;20201;-81
2021/08/02 07:59:01;;;;;;;3.93;3.53;;;19.40;99.90;;;;;;5033693;28;20576;-81
2021/08/02 08:01:26;;;;;;;5.00;4.07;;;19.30;99.90;;;;;;5034412;28;20600;-81
2021/08/02 08:03:52;;;;;;;4.60;4.07;;;19.40;99.90;;;;;;5035199;28;20162;-81
2021/08/02 08:06:18;;;;;;;3.57;3.27;;;19.30;99.90;;;;;;5033963;28;20648;-81
2021/08/02 08:08:44;;;;;;;3.40;3.10;;;19.30;99.90;;;;;;5033559;28;20174;-80
2021/08/02 08:11:10;;;;;;;7.30;3.30;;;19.30;99.90;;;;;;5037499;28;20642;-83
2021/08/02 08:13:38;;;;;;;5.33;3.57;;;19.30;99.90;;;;;;5042171;28;20204;-84
2021/08/02 08:16:06;;;;;;;3.70;2.60;;;19.30;99.90;;;;;;5043372;28;20569;-83
2021/08/02 08:18:31;;;;;;;3.90;3.17;;;19.30;99.90;;;;;;5049352;28;20615;-83
2021/08/02 08:20:59;;;;;;;3.27;2.97;;;19.30;99.90;;;;;;5048184;28;20580;-82
2021/08/02 08:23:31;;;;;;;3.87;2.00;;;19.30;99.90;;;;;;5039419;28;20584;-83
2021/08/02 08:26:00;;;;;;;3.17;2.37;;;19.40;99.90;;;;;;5038382;28;20674;-83
2021/08/02 08:28:26;;;;;;;4.10;2.30;;;19.40;99.90;;;;;;5042232;28;21077;-82
2021/08/02 08:30:53;;;;;;;3.63;2.10;;;19.40;99.90;;;;;;5039104;28;20584;-82
2021/08/02 08:33:19;;;;;;;2.63;1.80;;;19.40;99.90;;;;;;5038363;28;20620;-83
2021/08/02 08:35:44;;;;;;;5.03;2.30;;;19.40;99.90;;;;;;5036089;28;20635;-83
2021/08/02 08:38:10;;;;;;;4.17;2.20;;;19.40;99.90;;;;;;5035100;28;20198;-83
2021/08/02 08:40:36;;;;;;;5.60;2.30;;;19.40;99.90;;;;;;5034629;28;20327;-83
2021/08/02 08:43:03;;;;;;;3.30;2.43;;;19.50;99.90;;;;;;5041614;28;20170;-82
2021/08/02 08:45:29;;;;;;;8.37;3.20;;;19.50;99.90;;;;;;5048170;28;20576;-82
2021/08/02 08:47:56;;;;;;;6.97;3.57;;;19.60;99.90;;;;;;5050125;28;20976;-82
2021/08/02 08:50:23;;;;;;;3.03;2.67;;;19.70;99.90;;;;;;5042896;28;20190;-82
2021/08/02 08:52:57;;;;;;;4.70;3.73;;;19.70;99.90;;;;;;5046015;28;20624;-82
2021/08/02 08:55:23;;;;;;;4.13;2.80;;;19.80;99.90;;;;;;5044995;28;20573;-82
2021/08/02 08:57:49;;;;;;;4.77;3.47;;;19.90;99.90;;;;;;5043293;28;20986;-83
2021/08/02 09:00:26;;;;;;;4.30;3.10;;;20.00;99.90;;;;;;5045915;28;20603;-82
2021/08/02 09:02:54;;;;;;;3.40;2.80;;;20.10;99.90;;;;;;5042896;28;20169;-82
2021/08/02 09:05:20;;;;;;;4.10;3.00;;;20.20;99.90;;;;;;5040377;28;20592;-82
2021/08/02 09:07:47;;;;;;;3.80;2.90;;;20.40;99.90;;;;;;5036439;28;20601;-82
2021/08/02 09:10:15;;;;;;;3.00;2.07;;;20.50;99.90;;;;;;5034680;28;20604;-82
2021/08/02 09:12:54;;;;;;;3.63;1.60;;;20.60;99.90;;;;;;5036299;28;20650;-82
2021/08/02 09:15:34;;;;;;;5.80;1.80;;;20.70;99.90;;;;;;5034682;28;20619;-82
2021/08/02 09:18:01;;;;;;;3.73;1.23;;;20.80;99.90;;;;;;5019211;28;20663;-82
2021/08/02 09:20:28;;;;;;;2.50;1.40;;;20.90;99.90;;;;;;5039289;28;20573;-82
2021/08/02 09:23:02;;;;;;;3.20;1.00;;;21.00;99.90;;;;;;5036476;28;20591;-82
2021/08/02 09:25:28;;;;;;;1.83;1.10;;;21.10;99.90;;;;;;5038056;28;20634;-82
2021/08/02 09:27:54;;;;;;;3.03;1.27;;;21.20;99.90;;;;;;5037908;28;20600;-82
2021/08/02 09:30:26;;;;;;;2.87;1.17;;;21.40;99.90;;;;;;5033376;28;20177;-82
2021/08/02 09:32:52;;;;;;;3.03;1.20;;;21.60;99.90;;;;;;5032109;28;20201;-82
2021/08/02 09:35:39;;;;;;;2.50;1.23;;;21.90;99.90;;;;;;5031067;28;20587;-82
2021/08/02 09:38:14;;;;;;;2.17;1.10;;;22.30;99.90;;;;;;5032038;28;20224;-82
2021/08/02 09:40:49;;;;;;;3.23;1.80;;;22.90;99.90;;;;;;5030955;28;20674;-82
2021/08/02 09:43:21;;;;;;;1.90;1.00;;;23.70;99.90;;;;;;5032118;28;20599;-82
2021/08/02 09:45:58;;;;;;;6.63;2.63;;;24.70;99.90;;;;;;5032158;28;20591;-82
2021/08/02 09:48:41;;;;;;;2.60;1.40;;;25.90;99.90;;;;;;5013991;28;20616;-83
2021/08/02 09:51:13;;;;;;;2.37;1.50;;;26.60;99.90;;;;;;5032260;28;20682;-82
2021/08/02 09:53:44;;;;;;;2.20;1.50;;;27.30;99.90;;;;;;5030775;28;20631;-82
2021/08/02 09:56:14;;;;;;;3.40;1.20;;;27.80;99.90;;;;;;5032453;28;20686;-82
2021/08/02 09:58:41;;;;;;;3.00;1.50;;;28.00;99.90;;;;;;5031620;28;20953;-82
2021/08/02 10:01:08;;;;;;;3.07;1.00;;;28.20;99.90;;;;;;5031986;28;20983;-82
2021/08/02 10:03:34;;;;;;;2.63;1.00;;;28.40;99.90;;;;;;5030669;28;20569;-82
2021/08/02 10:06:01;;;;;;;2.70;1.17;;;28.50;99.90;;;;;;5030609;28;21162;-82
2021/08/02 10:08:28;;;;;;;2.20;1.10;;;28.50;99.90;;;;;;5031500;28;21245;-82
2021/08/02 10:10:54;;;;;;;1.73;0.93;;;28.50;99.90;;;;;;5031757;28;20612;-82
2021/08/02 10:13:24;;;;;;;2.03;0.80;;;28.70;99.90;;;;;;5030462;28;20655;-82
2021/08/02 10:15:56;;;;;;;2.80;1.07;;;29.10;99.90;;;;;;5031629;28;20170;-82
2021/08/02 10:18:23;;;;;;;1.90;0.87;;;29.50;99.90;;;;;;5031598;28;20603;-82
2021/08/02 10:20:50;;;;;;;2.17;1.10;;;29.60;99.90;;;;;;5030357;28;20576;-82
2021/08/02 10:23:25;;;;;;;5.90;1.30;;;29.50;99.90;;;;;;5030622;28;20608;-82
2021/08/02 10:25:51;;;;;;;2.43;1.20;;;29.20;99.90;;;;;;5031446;28;20576;-82
2021/08/02 10:28:18;;;;;;;1.90;1.03;;;28.90;99.90;;;;;;5030280;28;20608;-81
2021/08/02 10:31:00;;;;;;;3.97;1.00;;;28.50;99.90;;;;;;5033071;28;20581;-81
2021/08/02 10:33:37;;;;;;;2.40;1.17;;;28.20;99.90;;;;;;5030629;28;20620;-82
2021/08/02 10:36:18;;;;;;;4.13;1.37;;;28.00;99.90;;;;;;5030308;28;20591;-82
2021/08/02 10:38:46;;;;;;;5.93;1.50;;;27.90;99.90;;;;;;5029992;28;20569;-82
2021/08/02 10:41:30;;;;;;;4.20;1.70;;;27.80;99.90;;;;;;5031365;28;20564;-82
2021/08/02 10:43:57;;;;;;;1.40;1.00;;;27.60;99.90;;;;;;5031630;28;20572;-82
2021/08/02 10:46:24;;;;;;;3.57;1.20;;;27.40;99.90;;;;;;5031427;28;20975;-82
2021/08/02 10:48:52;;;;;;;2.13;1.10;;;27.20;99.90;;;;;;5030108;28;20579;-81
2021/08/02 10:51:19;;;;;;;2.77;1.30;;;27.00;99.90;;;;;;5013611;28;20565;-82
2021/08/02 10:54:03;;;;;;;2.63;1.20;;;26.80;99.90;;;;;;5034212;28;20623;-81
2021/08/02 10:56:30;;;;;;;2.60;1.40;;;26.60;99.60;;;;;;5033650;28;20631;-81
2021/08/02 10:58:57;;;;;;;2.20;1.10;;;26.40;99.60;;;;;;5035113;28;20579;-81
2021/08/02 11:01:27;;;;;;;3.40;0.97;;;26.20;99.50;;;;;;5033782;28;20587;-81
2021/08/02 11:03:57;;;;;;;1.70;0.80;;;26.00;99.20;;;;;;5034219;28;20576;-81
2021/08/02 11:06:26;;;;;;;3.00;0.90;;;25.80;99.00;;;;;;5033798;28;20588;-81
2021/08/02 11:08:57;;;;;;;2.50;0.80;;;25.60;98.80;;;;;;5036300;28;21035;-82
2021/08/02 11:11:31;;;;;;;2.13;0.90;;;25.50;98.90;;;;;;5033820;28;20683;-82
2021/08/02 11:14:20;;;;;;;2.67;0.80;;;25.40;99.10;;;;;;5033849;28;20615;-82
2021/08/02 11:16:48;;;;;;;1.40;0.80;;;25.40;98.90;;;;;;5016910;28;20612;-82
2021/08/02 11:19:22;;;;;;;1.40;0.70;;;25.40;99.20;;;;;;5034960;28;20576;-82
2021/08/02 11:22:09;;;;;;;2.47;1.00;;;25.40;99.00;;;;;;5033781;28;20618;-82
2021/08/02 11:24:37;;;;;;;2.00;0.90;;;25.40;99.10;;;;;;5036243;28;20660;-82
2021/08/02 11:27:10;;;;;;;2.20;0.73;;;25.50;99.30;;;;;;5041427;28;20611;-82
2021/08/02 11:29:36;;;;;;;2.57;0.90;;;25.50;98.70;;;;;;5039497;28;20580;-79
2021/08/02 11:32:05;;;;;;;2.53;0.90;;;25.50;98.80;;;;;;5033064;28;20727;-78
2021/08/02 11:34:32;;;;;;;2.20;0.80;;;25.50;97.90;;;;;;5046266;28;20941;-80
2021/08/02 11:37:12;;;;;;;1.50;0.80;;;25.50;97.60;;;;;;5034677;28;20588;-80
2021/08/02 11:39:41;;;;;;;1.90;1.10;;;25.50;98.20;;;;;;5017037;28;20742;-81
2021/08/02 11:42:08;;;;;;;1.40;0.80;;;25.60;98.20;;;;;;5035745;28;20589;-81
2021/08/02 11:44:35;;;;;;;3.93;1.37;;;25.70;98.20;;;;;;5035274;28;20585;-81
2021/08/02 11:47:07;;;;;;;1.57;0.80;;;25.70;97.80;;;;;;5034563;28;20965;-82
2021/08/02 11:49:38;;;;;;;1.33;0.80;;;25.70;97.40;;;;;;5038936;28;20590;-81
2021/08/02 11:52:05;;;;;;;2.00;0.77;;;25.70;97.50;;;;;;5053132;28;20610;-79
2021/08/02 11:54:31;;;;;;;1.90;0.87;;;25.70;97.20;;;;;;5053612;28;20576;-80
2021/08/02 11:56:56;;;;;;;2.17;1.17;;;25.60;97.10;;;;;;5052348;28;20666;-81
2021/08/02 11:59:24;;;;;;;3.07;0.97;;;25.50;96.90;;;;;;5044822;28;20969;-80
2021/08/02 12:01:52;;;;;;;4.13;1.60;;;25.40;96.80;;;;;;5037132;28;20169;-80
2021/08/02 12:04:19;;;;;;;1.70;1.10;;;25.40;97.40;;;;;;5042317;28;20576;-80
2021/08/02 12:06:59;;;;;;;1.60;1.20;;;25.60;98.30;;;;;;5045155;28;20639;-80
2021/08/02 12:09:36;;;;;;;1.60;0.90;;;25.70;97.90;;;;;;5054782;28;20564;-78
2021/08/02 12:12:05;;;;;;;1.80;0.90;;;26.00;98.40;;;;;;5045795;28;20619;-79
2021/08/02 12:14:32;;;;;;;1.70;1.00;;;26.20;98.00;;;;;;5044013;28;20588;-80
2021/08/02 12:17:07;;;;;;;1.83;1.03;;;26.30;97.70;;;;;;5044296;28;20618;-80
2021/08/02 12:19:45;;;;;;;1.97;1.43;;;26.50;97.50;;;;;;5051431;28;20611;-79
2021/08/02 12:22:11;;;;;;;1.80;1.00;;;26.60;96.90;;;;;;5048342;28;20580;-80
2021/08/02 12:24:49;;;;;;;1.63;0.90;;;26.70;97.60;;;;;;5034323;28;20596;-80
2021/08/02 12:27:17;;;;;;;1.80;0.90;;;26.90;97.60;;;;;;5053573;28;20607;-79
2021/08/02 12:29:43;;;;;;;3.83;1.00;;;27.10;97.30;;;;;;5056856;28;20604;-80
2021/08/02 12:32:09;;;;;;;1.93;1.10;;;27.30;96.90;;;;;;5057253;28;20619;-80
2021/08/02 12:34:35;;;;;;;1.50;0.97;;;27.40;97.30;;;;;;5058231;28;20583;-79
2021/08/02 12:37:01;;;;;;;2.63;0.90;;;27.70;97.90;;;;;;5056379;28;20644;-80
2021/08/02 12:39:30;;;;;;;3.10;1.60;;;27.80;97.80;;;;;;5057546;28;20571;-79
2021/08/02 12:41:57;;;;;;;4.37;1.23;;;28.10;97.00;;;;;;5043275;28;20557;-79
2021/08/02 12:44:23;;;;;;;2.03;1.00;;;28.10;96.40;;;;;;5046002;28;20588;-80
2021/08/02 12:46:48;;;;;;;3.13;1.10;;;28.10;95.80;;;;;;5053889;28;20647;-80
2021/08/02 12:49:14;;;;;;;2.33;0.90;;;28.10;95.50;;;;;;5057699;28;20162;-79
2021/08/02 12:51:40;;;;;;;4.03;1.27;;;28.10;95.30;;;;;;5057737;28;20182;-79
2021/08/02 12:54:06;;;;;;;2.70;1.23;;;28.10;94.90;;;;;;5055729;28;20631;-79
2021/08/02 12:56:31;;;;;;;3.50;1.20;;;28.10;93.90;;;;;;5057125;28;20166;-79